createdAt,value
2018-07-19T00:01:45.084Z,14.56
2018-07-19T00:04:13.850Z,14.87
2018-07-19T00:06:42.722Z,14.96
2018-07-19T00:09:11.612Z,14.89
2018-07-19T00:11:40.419Z,14.50
2018-07-19T00:14:09.264Z,14.42
2018-07-19T00:16:38.111Z,14.49
2018-07-19T00:19:07.089Z,14.60
2018-07-19T00:21:36.003Z,14.59
2018-07-19T00:24:04.674Z,14.79
2018-07-19T00:26:33.482Z,14.51
2018-07-19T00:29:02.173Z,14.38
2018-07-19T00:31:30.975Z,14.47
2018-07-19T00:33:59.790Z,14.81
2018-07-19T00:36:28.586Z,15.00
2018-07-19T00:38:57.396Z,14.45
2018-07-19T00:41:26.216Z,14.76
2018-07-19T00:43:55.053Z,14.77
2018-07-19T00:46:24.055Z,14.65
2018-07-19T00:48:52.929Z,14.88
2018-07-19T00:51:21.728Z,14.42
2018-07-19T00:53:50.595Z,14.16
2018-07-19T00:56:19.376Z,14.53
2018-07-19T00:58:48.254Z,14.54
2018-07-19T01:01:17.135Z,14.67
2018-07-19T01:03:45.955Z,14.28
2018-07-19T01:06:14.740Z,14.60
2018-07-19T01:08:43.571Z,14.62
2018-07-19T01:11:12.437Z,14.05
2018-07-19T01:13:41.237Z,13.85
2018-07-19T01:16:10.427Z,14.02
2018-07-19T01:18:39.194Z,13.98
2018-07-19T01:21:08.080Z,14.06
2018-07-19T01:23:36.956Z,14.07
2018-07-19T01:26:05.866Z,13.97
2018-07-19T01:28:34.670Z,14.03
2018-07-19T01:31:03.570Z,14.05
2018-07-19T01:33:32.351Z,14.06
2018-07-19T01:36:01.281Z,13.97
2018-07-19T01:38:30.096Z,14.15
2018-07-19T01:41:04.011Z,13.95
2018-07-19T01:43:32.791Z,13.89
2018-07-19T01:46:07.532Z,13.66
2018-07-19T01:48:36.675Z,13.53
2018-07-19T01:51:05.528Z,14.14
2018-07-19T01:53:34.314Z,13.97
2018-07-19T01:56:03.208Z,13.81
2018-07-19T01:58:32.003Z,13.75
2018-07-19T02:01:00.967Z,13.79
2018-07-19T02:03:30.137Z,13.70
2018-07-19T02:05:59.029Z,13.71
2018-07-19T02:08:27.891Z,13.97
2018-07-19T02:10:56.712Z,13.67
2018-07-19T02:13:25.421Z,13.89
2018-07-19T02:15:54.178Z,13.99
2018-07-19T02:18:23.056Z,14.10
2018-07-19T02:20:52.176Z,13.90
2018-07-19T02:23:21.024Z,13.36
2018-07-19T02:25:49.878Z,13.11
2018-07-19T02:28:19.049Z,13.12
2018-07-19T02:30:47.839Z,13.48
2018-07-19T02:33:16.688Z,13.55
2018-07-19T02:35:45.518Z,13.41
2018-07-19T02:38:14.225Z,13.39
2018-07-19T02:40:43.299Z,13.26
2018-07-19T02:43:12.163Z,13.09
2018-07-19T02:45:46.818Z,13.27
2018-07-19T02:48:15.752Z,13.52
2018-07-19T02:50:44.579Z,13.25
2018-07-19T02:53:13.463Z,13.21
2018-07-19T02:55:42.267Z,13.48
2018-07-19T02:58:10.921Z,13.37
2018-07-19T03:00:39.801Z,13.23
2018-07-19T03:03:08.628Z,13.34
2018-07-19T03:05:37.463Z,13.36
2018-07-19T03:08:06.316Z,13.09
2018-07-19T03:10:35.136Z,13.00
2018-07-19T03:13:04.017Z,13.22
2018-07-19T03:15:32.855Z,13.24
2018-07-19T03:18:01.772Z,13.27
2018-07-19T03:20:30.635Z,13.27
2018-07-19T03:22:59.435Z,13.20
2018-07-19T03:25:28.656Z,13.20
2018-07-19T03:27:57.480Z,13.17
2018-07-19T03:30:26.500Z,13.16
2018-07-19T03:32:55.406Z,13.09
2018-07-19T03:35:24.237Z,13.07
2018-07-19T03:37:53.070Z,13.02
2018-07-19T03:40:21.867Z,13.16
2018-07-19T03:42:50.916Z,13.21
2018-07-19T03:45:25.603Z,13.17
2018-07-19T03:47:54.454Z,13.13
2018-07-19T03:50:23.340Z,13.29
2018-07-19T03:52:52.139Z,13.30
2018-07-19T03:55:20.976Z,13.39
2018-07-19T03:57:49.783Z,13.51
2018-07-19T04:00:18.658Z,13.49
2018-07-19T04:02:47.281Z,13.70
2018-07-19T04:05:16.285Z,13.69
2018-07-19T04:07:45.098Z,13.62
2018-07-19T04:10:13.896Z,13.75
2018-07-19T04:12:42.823Z,13.80
2018-07-19T04:15:11.605Z,13.79
2018-07-19T04:17:52.104Z,13.79
2018-07-19T04:20:21.043Z,13.86
2018-07-19T04:22:49.975Z,13.84
2018-07-19T04:25:18.760Z,13.77
2018-07-19T04:27:47.575Z,13.97
2018-07-19T04:30:16.427Z,14.13
2018-07-19T04:32:45.376Z,14.10
2018-07-19T04:35:14.221Z,14.33
2018-07-19T04:37:43.071Z,14.56
2018-07-19T04:40:11.883Z,14.53
2018-07-19T04:42:40.779Z,14.78
2018-07-19T04:45:09.807Z,14.87
2018-07-19T04:47:38.742Z,14.90
2018-07-19T04:50:07.637Z,14.80
2018-07-19T04:52:36.510Z,15.02
2018-07-19T04:55:05.352Z,15.03
2018-07-19T04:57:34.099Z,15.19
2018-07-19T05:00:03.060Z,15.23
2018-07-19T05:02:31.927Z,15.29
2018-07-19T05:05:00.590Z,15.51
2018-07-19T05:07:29.891Z,15.88
2018-07-19T05:09:58.543Z,16.13
2018-07-19T05:12:27.410Z,16.36
2018-07-19T05:14:56.265Z,16.58
2018-07-19T05:17:25.287Z,16.89
2018-07-19T05:19:54.162Z,17.22
2018-07-19T05:22:22.824Z,17.45
2018-07-19T05:24:51.749Z,17.48
2018-07-19T05:27:20.536Z,17.24
2018-07-19T05:29:49.407Z,16.30
2018-07-19T05:32:18.227Z,16.46
2018-07-19T05:34:47.085Z,17.15
2018-07-19T05:37:15.934Z,17.58
2018-07-19T05:39:44.797Z,17.85
2018-07-19T05:42:13.690Z,17.74
2018-07-19T05:44:42.523Z,17.84
2018-07-19T05:47:11.397Z,18.26
2018-07-19T05:49:40.158Z,18.23
2018-07-19T05:52:08.966Z,18.47
2018-07-19T05:54:37.831Z,18.65
2018-07-19T05:57:06.653Z,18.83
2018-07-19T05:59:35.512Z,19.00
2018-07-19T06:02:04.402Z,18.84
2018-07-19T06:04:33.078Z,19.58
2018-07-19T06:07:01.710Z,19.61
2018-07-19T06:09:30.889Z,19.74
2018-07-19T06:11:59.733Z,19.84
2018-07-19T06:14:28.625Z,20.10
2018-07-19T06:16:57.551Z,20.15
2018-07-19T06:19:26.170Z,20.45
2018-07-19T06:21:55.015Z,20.09
2018-07-19T06:24:23.867Z,20.33
2018-07-19T06:26:52.750Z,20.72
2018-07-19T06:29:21.915Z,20.67
2018-07-19T06:31:50.607Z,21.13
2018-07-19T06:34:19.535Z,20.93
2018-07-19T06:36:48.423Z,20.66
2018-07-19T06:39:17.146Z,20.96
2018-07-19T06:41:46.020Z,21.22
2018-07-19T06:44:14.895Z,21.58
2018-07-19T06:46:43.863Z,21.31
2018-07-19T06:49:12.687Z,21.62
2018-07-19T06:51:41.485Z,21.50
2018-07-19T06:54:10.289Z,21.36
2018-07-19T06:56:39.127Z,20.92
2018-07-19T06:59:07.911Z,21.33
2018-07-19T07:01:36.578Z,21.87
2018-07-19T07:04:05.456Z,21.43
2018-07-19T07:06:34.489Z,21.53
2018-07-19T07:09:04.055Z,21.41
2018-07-19T07:11:32.861Z,22.62
2018-07-19T07:14:01.545Z,22.98
2018-07-19T07:16:30.515Z,22.05
2018-07-19T07:18:59.404Z,22.43
2018-07-19T07:21:28.248Z,21.85
2018-07-19T07:23:57.086Z,21.79
2018-07-19T07:26:25.856Z,21.57
2018-07-19T07:28:54.612Z,21.65
2018-07-19T07:31:23.403Z,21.90
2018-07-19T07:33:52.223Z,21.88
2018-07-19T07:36:20.993Z,22.35
2018-07-19T07:38:49.896Z,22.30
2018-07-19T07:41:18.735Z,22.06
2018-07-19T07:43:47.606Z,22.45
2018-07-19T07:46:16.859Z,23.20
2018-07-19T07:48:45.741Z,22.69
2018-07-19T07:51:14.533Z,22.62
2018-07-19T07:53:43.446Z,23.05
2018-07-19T07:56:12.246Z,22.60
2018-07-19T07:58:41.062Z,23.51
2018-07-19T08:01:09.883Z,23.55
2018-07-19T08:03:38.571Z,23.66
2018-07-19T08:06:07.524Z,23.94
2018-07-19T08:08:36.363Z,23.74
2018-07-19T08:11:05.238Z,24.44
2018-07-19T08:13:34.016Z,24.26
2018-07-19T08:16:03.136Z,24.22
2018-07-19T08:18:32.034Z,24.64
2018-07-19T08:21:00.915Z,24.20
2018-07-19T08:23:29.718Z,24.09
2018-07-19T08:25:58.595Z,24.46
2018-07-19T08:28:27.488Z,23.82
2018-07-19T08:30:56.416Z,24.52
2018-07-19T08:33:25.284Z,24.09
2018-07-19T08:35:54.154Z,24.38
2018-07-19T08:38:22.959Z,24.88
2018-07-19T08:40:51.839Z,25.12
2018-07-19T08:43:20.703Z,24.96
2018-07-19T08:45:52.316Z,24.45
2018-07-19T08:48:21.144Z,25.00
2018-07-19T08:50:50.052Z,24.96
2018-07-19T08:53:18.856Z,25.47
2018-07-19T08:55:47.750Z,25.55
2018-07-19T08:58:16.528Z,24.59
2018-07-19T09:00:45.377Z,24.63
2018-07-19T09:03:14.195Z,24.89
2018-07-19T09:05:43.007Z,25.16
2018-07-19T09:08:11.895Z,25.73
2018-07-19T09:10:40.714Z,25.40
2018-07-19T09:13:09.524Z,25.69
2018-07-19T09:15:38.377Z,25.62
2018-07-19T09:18:07.287Z,25.62
2018-07-19T09:20:36.127Z,26.23
2018-07-19T09:23:05.119Z,26.04
2018-07-19T09:25:33.904Z,25.48
2018-07-19T09:28:02.808Z,25.53
2018-07-19T09:30:31.676Z,25.40
2018-07-19T09:33:00.539Z,25.09
2018-07-19T09:35:29.355Z,25.30
2018-07-19T09:37:58.207Z,25.76
2018-07-19T09:40:27.063Z,25.31
2018-07-19T09:42:55.911Z,25.70
2018-07-19T09:45:30.791Z,26.37
2018-07-19T09:47:59.650Z,26.61
2018-07-19T09:50:28.483Z,25.25
2018-07-19T09:52:57.308Z,25.37
2018-07-19T09:55:26.146Z,26.00
2018-07-19T09:57:55.228Z,25.70
2018-07-19T10:00:29.764Z,25.92
2018-07-19T10:02:58.631Z,26.38
2018-07-19T10:05:27.886Z,25.49
2018-07-19T10:07:56.704Z,25.35
2018-07-19T10:10:25.558Z,25.53
2018-07-19T10:12:54.349Z,25.81
2018-07-19T10:15:23.251Z,25.37
2018-07-19T10:17:52.181Z,25.42
2018-07-19T10:20:21.140Z,25.55
2018-07-19T10:22:49.940Z,25.19
2018-07-19T10:25:18.826Z,25.31
2018-07-19T10:27:47.621Z,25.75
2018-07-19T10:30:16.859Z,25.20
2018-07-19T10:32:45.694Z,25.26
2018-07-19T10:35:14.612Z,25.52
2018-07-19T10:37:43.364Z,25.58
2018-07-19T10:40:12.222Z,25.55
2018-07-19T10:42:41.072Z,25.90
2018-07-19T10:45:10.023Z,25.90
2018-07-19T10:47:38.840Z,25.52
2018-07-19T10:50:07.684Z,25.83
2018-07-19T10:52:36.284Z,25.92
2018-07-19T10:55:05.220Z,26.14
2018-07-19T10:57:34.068Z,25.34
2018-07-19T11:00:02.912Z,25.57
2018-07-19T11:02:31.789Z,25.69
2018-07-19T11:05:00.545Z,25.78
2018-07-19T11:07:29.445Z,25.57
2018-07-19T11:09:58.251Z,25.31
2018-07-19T11:12:27.363Z,25.72
2018-07-19T11:14:56.128Z,25.32
2018-07-19T11:17:25.016Z,25.52
2018-07-19T11:19:53.710Z,25.82
2018-07-19T11:22:22.579Z,25.62
2018-07-19T11:24:51.344Z,25.81
2018-07-19T11:27:19.978Z,25.42
2018-07-19T11:29:48.760Z,25.47
2018-07-19T11:32:17.784Z,25.03
2018-07-19T11:34:46.725Z,24.96
2018-07-19T11:37:15.676Z,25.07
2018-07-19T11:39:44.691Z,25.91
2018-07-19T11:42:13.516Z,26.20
2018-07-19T11:44:42.858Z,26.23
2018-07-19T11:47:11.964Z,26.02
2018-07-19T11:49:40.716Z,25.43
2018-07-19T11:52:09.495Z,25.49
2018-07-19T11:54:38.323Z,25.50
2018-07-19T11:57:07.176Z,25.03
2018-07-19T11:59:35.980Z,25.04
2018-07-19T12:02:04.821Z,24.89
2018-07-19T12:04:33.498Z,24.66
2018-07-19T12:07:02.333Z,25.36
2018-07-19T12:09:31.220Z,25.30
2018-07-19T12:12:00.121Z,25.03
2018-07-19T12:14:28.999Z,25.81
2018-07-19T12:16:57.841Z,26.31
2018-07-19T12:19:26.659Z,26.25
2018-07-19T12:21:55.687Z,26.07
2018-07-19T12:24:24.491Z,26.57
2018-07-19T12:26:53.291Z,26.93
2018-07-19T12:29:22.136Z,26.55
2018-07-19T12:31:50.751Z,26.33
2018-07-19T12:34:19.463Z,26.20
2018-07-19T12:36:48.303Z,26.53
2018-07-19T12:39:17.148Z,26.18
2018-07-19T12:41:45.933Z,25.95
2018-07-19T12:44:14.755Z,26.08
2018-07-19T12:46:43.927Z,25.51
2018-07-19T12:49:13.296Z,25.73
2018-07-19T12:51:42.080Z,25.39
2018-07-19T12:54:10.835Z,25.54
2018-07-19T12:56:39.698Z,25.55
2018-07-19T12:59:08.523Z,25.48
2018-07-19T13:01:37.368Z,26.04
2018-07-19T13:04:06.156Z,26.12
2018-07-19T13:06:34.980Z,26.33
2018-07-19T13:09:05.895Z,26.86
2018-07-19T13:11:34.815Z,26.86
2018-07-19T13:14:04.427Z,26.48
2018-07-19T13:16:33.505Z,26.92
2018-07-19T13:19:02.311Z,26.66
2018-07-19T13:21:31.539Z,25.62
2018-07-19T13:24:00.362Z,25.92
2018-07-19T13:26:29.508Z,26.55
2018-07-19T13:28:58.439Z,26.84
2018-07-19T13:31:27.239Z,26.08
2018-07-19T13:33:56.059Z,25.58
2018-07-19T13:36:24.989Z,26.06
2018-07-19T13:38:53.784Z,26.61
2018-07-19T13:41:22.691Z,26.35
2018-07-19T13:43:51.455Z,25.36
2018-07-19T13:46:20.083Z,25.70
2018-07-19T13:48:48.874Z,26.42
2018-07-19T13:51:17.699Z,26.57
2018-07-19T13:54:15.607Z,26.63
2018-07-19T13:56:44.515Z,26.49
2018-07-19T13:59:14.007Z,26.16
2018-07-19T14:01:43.178Z,25.49
2018-07-19T14:04:12.295Z,26.10
2018-07-19T14:06:41.085Z,26.15
2018-07-19T14:09:14.077Z,26.80
2018-07-19T14:11:43.251Z,26.59
2018-07-19T14:14:12.083Z,26.54
2018-07-19T14:16:40.876Z,27.12
2018-07-19T14:19:09.808Z,26.42
2018-07-19T14:21:38.571Z,26.04
2018-07-19T14:24:07.537Z,26.43
2018-07-19T14:26:36.344Z,26.44
2018-07-19T14:29:05.384Z,26.67
2018-07-19T14:31:34.307Z,26.31
2018-07-19T14:34:03.034Z,26.41
2018-07-19T14:36:31.902Z,26.54
2018-07-19T14:39:00.715Z,26.59
2018-07-19T14:41:29.495Z,26.34
2018-07-19T14:43:58.344Z,25.90
2018-07-19T14:46:27.104Z,26.00
2018-07-19T14:48:56.183Z,25.76
2018-07-19T14:51:25.010Z,25.77
2018-07-19T14:53:53.774Z,25.74
2018-07-19T14:56:22.603Z,25.68
2018-07-19T14:58:51.424Z,25.84
2018-07-19T15:01:20.553Z,26.04
2018-07-19T15:03:49.375Z,26.05
2018-07-19T15:06:18.215Z,25.72
2018-07-19T15:08:46.985Z,25.70
2018-07-19T15:11:15.835Z,25.64
2018-07-19T15:13:44.732Z,25.56
2018-07-19T15:16:13.560Z,25.69
2018-07-19T15:18:42.389Z,25.73
2018-07-19T15:21:11.211Z,25.38
2018-07-19T15:23:39.975Z,25.57
2018-07-19T15:26:08.878Z,25.56
2018-07-19T15:28:37.639Z,25.39
2018-07-19T15:31:06.613Z,25.48
2018-07-19T15:33:35.639Z,25.59
2018-07-19T15:36:04.540Z,25.56
2018-07-19T15:38:33.463Z,25.35
2018-07-19T15:41:02.323Z,25.55
2018-07-19T15:43:31.085Z,25.85
2018-07-19T15:45:59.939Z,25.73
2018-07-19T15:48:28.747Z,25.71
2018-07-19T15:50:57.887Z,25.87
2018-07-19T15:53:26.732Z,25.91
2018-07-19T15:55:55.784Z,26.20
2018-07-19T15:58:24.592Z,25.72
2018-07-19T16:00:53.364Z,25.74
2018-07-19T16:03:22.272Z,25.56
2018-07-19T16:05:50.867Z,25.50
2018-07-19T16:08:19.502Z,25.58
2018-07-19T16:10:48.285Z,25.31
2018-07-19T16:13:17.147Z,25.64
2018-07-19T16:15:46.015Z,25.73
2018-07-19T16:18:14.881Z,25.62
2018-07-19T16:20:43.755Z,25.74
2018-07-19T16:23:12.563Z,25.71
2018-07-19T16:25:41.310Z,25.75
2018-07-19T16:28:10.184Z,25.78
2018-07-19T16:30:38.777Z,25.81
2018-07-19T16:33:07.647Z,25.95
2018-07-19T16:35:36.483Z,25.73
2018-07-19T16:38:05.658Z,25.75
2018-07-19T16:40:34.478Z,25.89
2018-07-19T16:43:03.407Z,25.37
2018-07-19T16:45:38.036Z,25.78
2018-07-19T16:48:06.872Z,25.65
2018-07-19T16:50:35.743Z,25.42
2018-07-19T16:53:04.387Z,25.29
2018-07-19T16:55:33.215Z,25.19
2018-07-19T16:58:01.979Z,25.03
2018-07-19T17:00:30.846Z,24.98
2018-07-19T17:02:59.709Z,24.82
2018-07-19T17:05:28.547Z,24.77
2018-07-19T17:07:57.396Z,24.93
2018-07-19T17:10:26.208Z,24.67
2018-07-19T17:12:54.980Z,24.50
2018-07-19T17:15:23.963Z,24.43
2018-07-19T17:17:52.787Z,24.07
2018-07-19T17:20:21.622Z,23.93
2018-07-19T17:22:50.409Z,24.10
2018-07-19T17:25:19.169Z,24.05
2018-07-19T17:27:48.017Z,24.02
2018-07-19T17:30:16.871Z,24.10
2018-07-19T17:32:45.643Z,24.08
2018-07-19T17:35:14.448Z,23.87
2018-07-19T17:37:43.337Z,23.56
2018-07-19T17:40:12.248Z,23.50
2018-07-19T17:42:40.871Z,23.54
2018-07-19T17:45:15.787Z,23.32
2018-07-19T17:47:44.576Z,23.31
2018-07-19T17:50:13.492Z,23.26
2018-07-19T17:52:42.250Z,23.19
2018-07-19T17:55:11.036Z,23.35
2018-07-19T17:57:39.856Z,23.10
2018-07-19T18:00:08.680Z,23.16
2018-07-19T18:02:37.630Z,22.98
2018-07-19T18:05:06.407Z,23.04
2018-07-19T18:07:35.235Z,23.15
2018-07-19T18:10:04.518Z,23.00
2018-07-19T18:12:33.303Z,23.11
2018-07-19T18:15:02.490Z,23.11
2018-07-19T18:17:31.316Z,23.00
2018-07-19T18:20:00.171Z,22.83
2018-07-19T18:22:28.997Z,22.85
2018-07-19T18:24:57.755Z,22.50
2018-07-19T18:27:26.742Z,22.49
2018-07-19T18:29:55.588Z,22.41
2018-07-19T18:32:24.813Z,22.46
2018-07-19T18:34:53.625Z,22.57
2018-07-19T18:37:22.415Z,22.34
2018-07-19T18:39:51.308Z,22.29
2018-07-19T18:42:20.306Z,22.27
2018-07-19T18:44:49.461Z,22.21
2018-07-19T18:47:18.058Z,22.16
2018-07-19T18:49:46.860Z,21.94
2018-07-19T18:52:15.761Z,22.04
2018-07-19T18:54:44.652Z,21.86
2018-07-19T18:57:13.478Z,21.96
2018-07-19T18:59:42.259Z,21.85
2018-07-19T19:02:11.090Z,21.64
2018-07-19T19:04:39.980Z,21.60
2018-07-19T19:07:08.771Z,21.53
2018-07-19T19:09:37.580Z,21.61
2018-07-19T19:12:06.206Z,21.35
2018-07-19T19:14:35.012Z,21.26
2018-07-19T19:17:04.956Z,21.09
2018-07-19T19:19:33.803Z,21.25
2018-07-19T19:22:02.584Z,21.11
2018-07-19T19:24:31.401Z,20.89
2018-07-19T19:27:00.133Z,20.88
2018-07-19T19:29:29.015Z,21.01
2018-07-19T19:31:57.768Z,20.62
2018-07-19T19:34:26.663Z,20.57
2018-07-19T19:36:55.406Z,20.55
2018-07-19T19:39:24.211Z,20.39
2018-07-19T19:41:52.953Z,20.55
2018-07-19T19:44:21.808Z,20.34
2018-07-19T19:46:50.845Z,20.28
2018-07-19T19:49:19.675Z,20.29
2018-07-19T19:51:48.534Z,20.20
2018-07-19T19:54:17.458Z,19.99
2018-07-19T19:56:46.296Z,20.01
2018-07-19T19:59:15.068Z,19.87
2018-07-19T20:01:44.157Z,19.78
2018-07-19T20:04:12.941Z,19.75
2018-07-19T20:06:41.646Z,19.68
2018-07-19T20:09:11.593Z,19.69
2018-07-19T20:11:40.767Z,19.43
2018-07-19T20:14:09.626Z,19.48
2018-07-19T20:16:38.463Z,19.46
2018-07-19T20:19:07.454Z,19.31
2018-07-19T20:21:36.634Z,19.23
2018-07-19T20:24:05.595Z,19.34
2018-07-19T20:26:34.581Z,19.14
2018-07-19T20:29:03.439Z,19.13
2018-07-19T20:31:32.642Z,19.11
2018-07-19T20:34:01.423Z,19.14
2018-07-19T20:36:30.245Z,18.98
2018-07-19T20:38:59.040Z,19.03
2018-07-19T20:41:27.827Z,18.88
2018-07-19T20:43:56.701Z,18.80
2018-07-19T20:46:25.527Z,18.76
2018-07-19T20:48:54.418Z,18.88
2018-07-19T20:51:23.323Z,18.80
2018-07-19T20:53:52.124Z,18.71
2018-07-19T20:56:20.809Z,18.66
2018-07-19T20:58:49.603Z,18.61
2018-07-19T21:01:18.372Z,18.53
2018-07-19T21:03:47.235Z,18.53
2018-07-19T21:06:16.387Z,18.66
2018-07-19T21:08:46.177Z,18.45
2018-07-19T21:11:16.196Z,18.59
2018-07-19T21:13:46.042Z,18.46
2018-07-19T21:16:15.795Z,18.53
2018-07-19T21:18:45.578Z,18.39
2018-07-19T21:21:15.554Z,18.33
2018-07-19T21:23:45.367Z,18.41
2018-07-19T21:26:15.030Z,18.31
2018-07-19T21:28:44.913Z,18.28
2018-07-19T21:31:14.499Z,18.38
2018-07-19T21:33:44.107Z,18.44
2018-07-19T21:36:13.317Z,18.42
2018-07-19T21:38:42.331Z,18.25
2018-07-19T21:41:11.307Z,18.25
2018-07-19T21:43:40.241Z,18.29
2018-07-19T21:46:09.170Z,18.25
2018-07-19T21:48:38.022Z,18.29
2018-07-19T21:51:06.871Z,18.37
2018-07-19T21:53:35.641Z,18.34
2018-07-19T21:56:04.494Z,18.38
2018-07-19T21:58:33.379Z,18.35
2018-07-19T22:01:07.683Z,18.43
2018-07-19T22:03:36.566Z,18.27
2018-07-19T22:06:05.513Z,18.21
2018-07-19T22:08:34.352Z,18.14
2018-07-19T22:11:03.225Z,18.12
2018-07-19T22:13:31.984Z,18.28
2018-07-19T22:16:00.623Z,18.09
2018-07-19T22:18:29.471Z,18.09
2018-07-19T22:20:58.298Z,18.21
2018-07-19T22:23:27.048Z,18.06
2018-07-19T22:25:55.874Z,18.22
2018-07-19T22:28:24.630Z,18.06
2018-07-19T22:30:53.491Z,17.86
2018-07-19T22:33:22.822Z,17.83
2018-07-19T22:35:51.552Z,18.05
2018-07-19T22:38:21.090Z,17.94
2018-07-19T22:40:49.864Z,17.83
2018-07-19T22:43:18.642Z,17.95
2018-07-19T22:45:53.409Z,17.89
2018-07-19T22:48:22.213Z,17.83
2018-07-19T22:50:50.968Z,17.83
2018-07-19T22:53:19.792Z,17.84
2018-07-19T22:55:48.727Z,17.73
2018-07-19T22:58:17.502Z,17.91
2018-07-19T23:00:46.280Z,17.54
2018-07-19T23:03:15.105Z,17.56
2018-07-19T23:05:43.905Z,17.46
2018-07-19T23:08:12.747Z,17.46
2018-07-19T23:10:41.491Z,17.61
2018-07-19T23:13:10.460Z,17.48
2018-07-19T23:15:39.202Z,17.45
2018-07-19T23:18:07.898Z,17.37
2018-07-19T23:20:36.912Z,17.44
2018-07-19T23:23:05.747Z,17.45
2018-07-19T23:25:34.494Z,17.43
2018-07-19T23:28:03.440Z,17.39
2018-07-19T23:30:34.392Z,17.38
2018-07-19T23:33:03.288Z,17.34
2018-07-19T23:35:38.201Z,17.51
2018-07-19T23:38:10.650Z,17.69
2018-07-19T23:40:41.980Z,17.56
2018-07-19T23:43:29.637Z,17.45
2018-07-19T23:47:04.458Z,17.51
2018-07-19T23:49:33.263Z,17.35
2018-07-19T23:52:02.041Z,17.48
2018-07-19T23:54:30.899Z,17.45
2018-07-19T23:56:59.675Z,17.22
2018-07-19T23:59:28.338Z,17.17
